createdAt,value
2019-04-16T00:00:06.537Z,19.20
2019-04-16T00:05:02.421Z,25.80
2019-04-16T00:10:04.057Z,20.50
2019-04-16T00:14:59.431Z,24.40
2019-04-16T00:19:53.531Z,18.70
2019-04-16T00:24:48.292Z,22.27
2019-04-16T00:29:42.278Z,17.33
2019-04-16T00:34:36.438Z,18.10
2019-04-16T00:39:30.447Z,21.63
2019-04-16T00:44:24.641Z,18.93
2019-04-16T00:49:18.621Z,19.23
2019-04-16T00:54:12.633Z,19.67
2019-04-16T00:59:06.624Z,18.60
2019-04-16T01:04:00.618Z,18.10
2019-04-16T01:08:55.251Z,20.63
2019-04-16T01:13:49.406Z,22.93
2019-04-16T01:18:43.333Z,20.60
2019-04-16T01:23:37.301Z,18.53
2019-04-16T01:28:36.282Z,20.93
2019-04-16T01:33:48.722Z,18.53
2019-04-16T01:38:50.349Z,20.67
2019-04-16T01:43:44.327Z,20.77
2019-04-16T01:48:39.655Z,20.93
2019-04-16T01:53:33.808Z,23.97
2019-04-16T01:58:27.855Z,21.20
2019-04-16T02:03:21.890Z,24.20
2019-04-16T02:08:15.840Z,22.53
2019-04-16T02:13:14.566Z,22.87
2019-04-16T02:18:06.085Z,23.10
2019-04-16T02:23:00.047Z,20.37
2019-04-16T02:27:54.268Z,21.20
2019-04-16T02:32:49.895Z,25.60
2019-04-16T02:37:43.866Z,30.57
2019-04-16T02:42:38.124Z,30.80
2019-04-16T02:47:32.266Z,24.00
2019-04-16T02:52:37.010Z,23.93
2019-04-16T02:57:48.273Z,22.73
2019-04-16T03:02:44.244Z,24.33
2019-04-16T03:07:38.220Z,25.03
2019-04-16T03:12:32.382Z,20.93
2019-04-16T03:17:28.271Z,21.13
2019-04-16T03:22:22.248Z,22.17
2019-04-16T03:27:16.340Z,20.77
2019-04-16T03:32:14.295Z,21.50
2019-04-16T03:37:06.363Z,24.43
2019-04-16T03:42:00.366Z,23.70
2019-04-16T03:46:54.527Z,23.67
2019-04-16T03:51:48.489Z,21.23
2019-04-16T03:56:42.439Z,22.20
2019-04-16T04:01:36.428Z,25.77
2019-04-16T04:06:30.421Z,24.73
2019-04-16T04:11:24.386Z,24.37
2019-04-16T04:16:18.527Z,24.27
2019-04-16T04:21:12.670Z,23.83
2019-04-16T04:26:08.919Z,30.90
2019-04-16T04:31:02.680Z,27.07
2019-04-16T04:35:56.624Z,24.83
2019-04-16T04:40:51.541Z,30.83
2019-04-16T04:45:45.633Z,26.17
2019-04-16T04:50:39.616Z,28.57
2019-04-16T04:55:33.934Z,25.57
2019-04-16T05:00:27.906Z,25.20
2019-04-16T05:05:26.764Z,31.20
2019-04-16T05:10:20.726Z,30.07
2019-04-16T05:15:14.687Z,28.17
2019-04-16T05:20:08.845Z,30.37
2019-04-16T05:25:04.062Z,28.20
2019-04-16T05:29:58.017Z,27.93
2019-04-16T05:34:52.107Z,33.60
2019-04-16T05:39:46.175Z,29.43
2019-04-16T05:44:40.199Z,30.27
2019-04-16T05:49:34.182Z,31.30
2019-04-16T05:54:32.769Z,28.73
2019-04-16T05:59:26.745Z,27.13
2019-04-16T06:04:24.313Z,34.50
2019-04-16T06:09:16.583Z,30.10
2019-04-16T06:14:17.033Z,27.17
2019-04-16T06:19:11.580Z,27.47
2019-04-16T06:24:08.008Z,31.00
2019-04-16T06:29:22.081Z,31.90
2019-04-16T06:34:27.094Z,26.57
2019-04-16T06:39:22.966Z,20.83
2019-04-16T06:44:19.047Z,24.83
2019-04-16T06:49:24.070Z,20.60
2019-04-16T06:54:32.257Z,22.00
2019-04-16T06:59:29.851Z,27.67
2019-04-16T07:04:24.388Z,20.67
2019-04-16T07:09:23.395Z,20.67
2019-04-16T07:14:16.805Z,25.57
2019-04-16T07:19:11.656Z,20.83
2019-04-16T07:24:05.897Z,21.50
2019-04-16T07:29:04.811Z,22.20
2019-04-16T07:34:12.821Z,21.13
2019-04-16T07:39:28.857Z,23.63
2019-04-16T07:44:12.696Z,18.83
2019-04-16T07:49:26.377Z,22.43
2019-04-16T07:54:35.081Z,19.47
2019-04-16T07:59:31.988Z,25.40
2019-04-16T08:04:29.199Z,24.23
2019-04-16T08:09:23.257Z,22.05
2019-04-16T08:14:17.207Z,21.10
2019-04-16T08:19:12.236Z,22.98
2019-04-16T08:24:09.299Z,23.80
2019-04-16T08:29:03.457Z,23.50
2019-04-16T08:33:57.414Z,22.85
2019-04-16T08:38:51.388Z,24.00
2019-04-16T08:43:45.494Z,22.10
2019-04-16T08:48:39.708Z,22.07
2019-04-16T08:53:35.578Z,23.18
2019-04-16T08:58:29.703Z,26.25
2019-04-16T09:03:26.859Z,24.05
2019-04-16T09:08:35.332Z,20.43
2019-04-16T09:13:31.286Z,17.87
2019-04-16T09:18:30.159Z,22.30
2019-04-16T09:23:26.667Z,23.42
2019-04-16T09:28:25.950Z,22.65
2019-04-16T09:33:26.276Z,20.05
2019-04-16T09:38:22.209Z,22.45
2019-04-16T09:43:18.590Z,21.85
2019-04-16T09:48:12.706Z,21.00
2019-04-16T09:53:06.943Z,19.15
2019-04-16T09:58:05.866Z,20.88
2019-04-16T10:03:00.845Z,20.65
2019-04-16T10:07:57.000Z,20.80
2019-04-16T10:12:50.868Z,21.65
2019-04-16T10:17:44.833Z,21.33
2019-04-16T10:22:38.936Z,23.75
2019-04-16T10:27:37.543Z,20.62
2019-04-16T10:32:31.539Z,19.27
2019-04-16T10:37:25.638Z,19.67
2019-04-16T10:42:27.477Z,18.02
2019-04-16T10:47:23.541Z,19.90
2019-04-16T10:52:36.147Z,18.37
2019-04-16T10:57:50.384Z,18.87
2019-04-16T11:02:52.025Z,15.50
2019-04-16T11:07:50.902Z,19.95
2019-04-16T11:12:45.081Z,15.65
2019-04-16T11:17:39.296Z,16.20
2019-04-16T11:22:33.253Z,12.18
2019-04-16T11:27:27.484Z,12.53
2019-04-16T11:32:30.551Z,12.30
2019-04-16T11:37:24.519Z,11.88
2019-04-16T11:42:18.635Z,9.75
2019-04-16T11:47:12.858Z,9.35
2019-04-16T11:52:07.150Z,10.43
2019-04-16T11:57:01.099Z,12.13
2019-04-16T12:01:59.983Z,9.08
2019-04-16T12:07:11.043Z,10.55
2019-04-16T12:12:19.016Z,8.70
2019-04-16T12:17:15.143Z,8.88
2019-04-16T12:22:15.930Z,8.48
2019-04-16T12:27:28.632Z,11.78
2019-04-16T12:32:30.705Z,12.18
2019-04-16T12:37:43.629Z,12.43
2019-04-16T12:42:42.609Z,12.63
2019-04-16T12:47:41.634Z,11.90
2019-04-16T12:52:55.569Z,15.43
2019-04-16T12:58:00.903Z,14.68
2019-04-16T13:02:56.807Z,12.70
2019-04-16T13:07:55.441Z,15.28
2019-04-16T13:12:57.335Z,18.07
2019-04-16T13:17:59.246Z,14.45
2019-04-16T13:22:58.166Z,14.87
2019-04-16T13:27:52.662Z,16.32
2019-04-16T13:32:46.625Z,14.95
2019-04-16T13:37:40.691Z,17.48
2019-04-16T13:42:34.803Z,17.87
2019-04-16T13:47:28.886Z,15.13
2019-04-16T13:52:25.251Z,15.43
2019-04-16T13:57:23.398Z,14.20
2019-04-16T14:02:22.457Z,14.80
2019-04-16T14:07:16.581Z,10.65
2019-04-16T14:12:10.564Z,9.68
2019-04-16T14:17:09.694Z,10.30
2019-04-16T14:22:00.672Z,9.95
2019-04-16T14:26:54.826Z,10.60
2019-04-16T14:31:49.027Z,12.82
2019-04-16T14:36:43.691Z,12.60
2019-04-16T14:41:37.788Z,15.30
2019-04-16T14:46:31.912Z,13.05
2019-04-16T14:51:25.892Z,14.73
2019-04-16T14:56:21.785Z,12.37
2019-04-16T15:01:34.108Z,10.45
2019-04-16T15:06:29.976Z,10.00
2019-04-16T15:11:28.652Z,9.95
2019-04-16T15:16:27.393Z,9.35
2019-04-16T15:21:29.061Z,9.30
2019-04-16T15:26:34.293Z,11.87
2019-04-16T15:31:33.609Z,10.28
2019-04-16T15:36:32.312Z,13.65
2019-04-16T15:41:45.387Z,9.80
2019-04-16T15:46:57.982Z,9.90
2019-04-16T15:52:00.138Z,8.88
2019-04-16T15:56:56.188Z,11.25
2019-04-16T16:02:09.146Z,8.90
2019-04-16T16:07:07.928Z,10.50
2019-04-16T16:12:05.599Z,11.35
2019-04-16T16:16:59.581Z,10.78
2019-04-16T16:21:53.560Z,12.85
2019-04-16T16:26:47.681Z,10.10
2019-04-16T16:31:41.794Z,9.53
2019-04-16T16:36:36.830Z,7.67
2019-04-16T16:41:31.697Z,14.80
2019-04-16T16:46:30.651Z,11.73
2019-04-16T16:51:25.075Z,9.33
2019-04-16T16:56:24.279Z,13.70
2019-04-16T17:01:34.732Z,11.00
2019-04-16T17:06:30.552Z,11.75
2019-04-16T17:11:24.674Z,8.35
2019-04-16T17:16:18.761Z,7.25
2019-04-16T17:21:12.860Z,5.65
2019-04-16T17:26:06.832Z,7.53
2019-04-16T17:31:00.936Z,6.15
2019-04-16T17:35:55.331Z,4.22
2019-04-16T17:41:00.489Z,4.10
2019-04-16T17:45:56.574Z,7.97
2019-04-16T17:51:09.200Z,14.10
2019-04-16T17:56:17.755Z,4.30
2019-04-16T18:01:19.782Z,21.00
2019-04-16T18:06:18.332Z,2.80
2019-04-16T18:11:19.987Z,4.53
2019-04-16T18:16:21.829Z,3.83
2019-04-16T18:21:23.512Z,12.07
2019-04-16T18:26:37.577Z,4.37
2019-04-16T18:31:39.461Z,2.80
2019-04-16T18:36:38.407Z,4.12
2019-04-16T18:41:40.154Z,6.85
2019-04-16T18:46:41.825Z,3.35
2019-04-16T18:51:36.148Z,5.90
2019-04-16T18:56:30.246Z,4.42
2019-04-16T19:01:29.690Z,4.92
2019-04-16T19:06:22.335Z,3.70
2019-04-16T19:11:20.236Z,5.30
2019-04-16T19:16:12.972Z,4.70
2019-04-16T19:21:07.191Z,7.08
2019-04-16T19:26:01.415Z,4.80
2019-04-16T19:30:55.434Z,9.50
2019-04-16T19:35:51.957Z,8.75
2019-04-16T19:40:47.718Z,5.92
2019-04-16T19:45:43.671Z,5.35
2019-04-16T19:50:37.890Z,16.85
2019-04-16T19:55:32.075Z,15.45
2019-04-16T20:00:26.397Z,11.90
2019-04-16T20:05:20.774Z,11.05
2019-04-16T20:10:15.127Z,8.87
2019-04-16T20:15:09.856Z,12.60
2019-04-16T20:20:04.874Z,15.07
2019-04-16T20:24:59.274Z,15.08
2019-04-16T20:29:53.579Z,14.40
2019-04-16T20:34:47.709Z,10.55
2019-04-16T20:39:41.783Z,12.13
2019-04-16T20:44:35.875Z,10.65
2019-04-16T20:49:30.019Z,10.65
2019-04-16T20:54:24.113Z,9.08
2019-04-16T20:59:18.214Z,9.48
2019-04-16T21:04:12.377Z,8.90
2019-04-16T21:09:06.889Z,10.82
2019-04-16T21:14:01.222Z,14.07
2019-04-16T21:18:55.521Z,10.13
2019-04-16T21:23:49.782Z,9.90
2019-04-16T21:28:45.659Z,11.63
2019-04-16T21:33:44.344Z,11.47
2019-04-16T21:38:46.154Z,9.77
2019-04-16T21:43:40.470Z,12.90
2019-04-16T21:48:34.512Z,10.13
2019-04-16T21:53:28.844Z,10.47
2019-04-16T21:58:23.104Z,9.93
2019-04-16T22:03:27.943Z,8.37
2019-04-16T22:08:22.147Z,9.67
2019-04-16T22:13:19.166Z,11.20
2019-04-16T22:18:11.979Z,10.20
2019-04-16T22:23:06.031Z,9.07
2019-04-16T22:28:00.035Z,13.83
2019-04-16T22:32:54.041Z,10.90
2019-04-16T22:37:48.016Z,9.27
2019-04-16T22:42:46.842Z,9.23
2019-04-16T22:47:42.795Z,7.57
2019-04-16T22:52:36.773Z,8.53
2019-04-16T22:57:31.189Z,9.47
2019-04-16T23:02:27.827Z,6.80
2019-04-16T23:07:21.823Z,11.30
2019-04-16T23:12:15.939Z,10.27
2019-04-16T23:17:13.142Z,8.65
2019-04-16T23:22:06.230Z,7.67
2019-04-16T23:27:04.259Z,8.87
2019-04-16T23:31:56.308Z,8.30
2019-04-16T23:36:50.389Z,8.03
2019-04-16T23:41:47.957Z,7.67
2019-04-16T23:46:44.929Z,6.17
2019-04-16T23:51:40.855Z,7.07
2019-04-16T23:56:39.827Z,6.30
